createdAt,value
2019-03-25T00:00:03.245Z,22.64
2019-03-25T00:01:03.255Z,22.64
2019-03-25T00:02:03.222Z,22.60
2019-03-25T00:03:03.213Z,22.61
2019-03-25T00:04:03.197Z,22.62
2019-03-25T00:05:03.925Z,22.61
2019-03-25T00:06:03.198Z,22.52
2019-03-25T00:07:03.921Z,22.51
2019-03-25T00:08:03.931Z,22.68
2019-03-25T00:09:05.529Z,22.61
2019-03-25T00:10:03.934Z,22.58
2019-03-25T00:11:03.443Z,22.54
2019-03-25T00:12:03.923Z,22.61
2019-03-25T00:13:03.104Z,22.64
2019-03-25T00:14:03.095Z,22.57
2019-03-25T00:15:03.925Z,22.57
2019-03-25T00:16:03.093Z,22.49
2019-03-25T00:17:03.063Z,22.52
2019-03-25T00:18:03.050Z,22.64
2019-03-25T00:19:03.040Z,22.49
2019-03-25T00:20:03.030Z,22.47
2019-03-25T00:21:03.038Z,22.52
2019-03-25T00:22:03.018Z,22.54
2019-03-25T00:23:03.013Z,22.55
2019-03-25T00:24:02.989Z,22.52
2019-03-25T00:25:02.976Z,22.52
2019-03-25T00:26:02.996Z,22.52
2019-03-25T00:27:02.952Z,22.46
2019-03-25T00:28:03.922Z,22.46
2019-03-25T00:29:02.934Z,22.51
2019-03-25T00:30:02.924Z,22.54
2019-03-25T00:31:02.936Z,22.51
2019-03-25T00:32:02.902Z,22.49
2019-03-25T00:33:02.890Z,22.51
2019-03-25T00:34:02.876Z,22.46
2019-03-25T00:35:02.866Z,22.54
2019-03-25T00:36:02.873Z,22.49
2019-03-25T00:37:02.846Z,22.52
2019-03-25T00:38:03.427Z,22.54
2019-03-25T00:39:03.428Z,22.52
2019-03-25T00:40:02.819Z,22.51
2019-03-25T00:41:02.821Z,22.55
2019-03-25T00:42:02.795Z,22.45
2019-03-25T00:43:02.782Z,22.52
2019-03-25T00:44:02.768Z,22.42
2019-03-25T00:45:02.776Z,22.49
2019-03-25T00:46:02.797Z,22.43
2019-03-25T00:47:02.736Z,22.55
2019-03-25T00:48:02.725Z,22.54
2019-03-25T00:49:02.716Z,22.46
2019-03-25T00:50:02.702Z,22.51
2019-03-25T00:51:03.428Z,22.51
2019-03-25T00:52:02.704Z,22.46
2019-03-25T00:53:02.670Z,22.55
2019-03-25T00:54:02.660Z,22.49
2019-03-25T00:55:03.427Z,22.51
2019-03-25T00:56:03.424Z,22.51
2019-03-25T00:57:02.939Z,22.42
2019-03-25T00:58:02.620Z,22.54
2019-03-25T00:59:02.621Z,22.45
2019-03-25T01:00:02.595Z,22.57
2019-03-25T01:01:03.428Z,22.40
2019-03-25T01:02:02.586Z,22.49
2019-03-25T01:03:02.563Z,22.46
2019-03-25T01:04:02.554Z,22.47
2019-03-25T01:05:02.541Z,22.40
2019-03-25T01:06:02.530Z,22.49
2019-03-25T01:07:02.941Z,22.45
2019-03-25T01:08:02.508Z,22.45
2019-03-25T01:09:02.499Z,22.42
2019-03-25T01:10:02.485Z,22.46
2019-03-25T01:11:02.475Z,22.45
2019-03-25T01:12:02.965Z,22.49
2019-03-25T01:13:02.461Z,22.46
2019-03-25T01:14:03.429Z,22.43
2019-03-25T01:15:02.432Z,22.45
2019-03-25T01:16:02.932Z,22.46
2019-03-25T01:17:02.425Z,22.49
2019-03-25T01:18:02.407Z,22.54
2019-03-25T01:19:02.929Z,22.42
2019-03-25T01:20:02.401Z,22.42
2019-03-25T01:21:02.367Z,22.46
2019-03-25T01:22:02.384Z,22.45
2019-03-25T01:23:02.343Z,22.47
2019-03-25T01:24:02.930Z,22.40
2019-03-25T01:25:02.843Z,22.39
2019-03-25T01:26:02.312Z,22.39
2019-03-25T01:27:02.325Z,22.49
2019-03-25T01:28:02.926Z,22.45
2019-03-25T01:29:02.281Z,22.45
2019-03-25T01:30:02.276Z,22.37
2019-03-25T01:31:02.261Z,22.47
2019-03-25T01:32:02.285Z,22.43
2019-03-25T01:33:02.238Z,22.37
2019-03-25T01:34:02.226Z,22.46
2019-03-25T01:35:02.946Z,22.43
2019-03-25T01:36:02.932Z,22.45
2019-03-25T01:37:02.446Z,22.45
2019-03-25T01:38:02.179Z,22.45
2019-03-25T01:39:02.172Z,22.40
2019-03-25T01:40:02.935Z,22.39
2019-03-25T01:41:02.153Z,22.37
2019-03-25T01:42:02.453Z,22.39
2019-03-25T01:43:02.132Z,22.42
2019-03-25T01:44:02.117Z,22.27
2019-03-25T01:45:02.116Z,22.36
2019-03-25T01:46:02.095Z,22.46
2019-03-25T01:47:02.100Z,22.28
2019-03-25T01:48:02.931Z,22.40
2019-03-25T01:49:02.060Z,22.42
2019-03-25T01:50:02.064Z,22.37
2019-03-25T01:51:02.931Z,22.37
2019-03-25T01:52:02.043Z,22.37
2019-03-25T01:53:02.020Z,22.28
2019-03-25T01:54:02.009Z,22.36
2019-03-25T01:55:12.710Z,22.36
2019-03-25T01:56:01.986Z,22.31
2019-03-25T01:57:01.990Z,22.35
2019-03-25T01:58:02.930Z,22.35
2019-03-25T01:59:01.959Z,22.37
2019-03-25T02:00:01.950Z,22.40
2019-03-25T02:01:01.963Z,22.33
2019-03-25T02:02:01.935Z,22.33
2019-03-25T02:03:01.912Z,22.40
2019-03-25T02:04:01.904Z,22.35
2019-03-25T02:05:01.900Z,22.35
2019-03-25T02:06:01.880Z,22.31
2019-03-25T02:07:01.885Z,22.30
2019-03-25T02:08:01.859Z,22.36
2019-03-25T02:09:01.847Z,22.36
2019-03-25T02:10:01.858Z,22.37
2019-03-25T02:11:02.434Z,22.35
2019-03-25T02:12:01.835Z,22.40
2019-03-25T02:13:02.435Z,22.30
2019-03-25T02:14:01.793Z,22.31
2019-03-25T02:15:02.433Z,22.31
2019-03-25T02:16:02.436Z,22.39
2019-03-25T02:17:01.780Z,22.36
2019-03-25T02:18:02.431Z,22.35
2019-03-25T02:19:01.739Z,22.35
2019-03-25T02:20:01.750Z,22.37
2019-03-25T02:21:02.429Z,22.28
2019-03-25T02:22:01.946Z,22.36
2019-03-25T02:23:02.744Z,22.31
2019-03-25T02:24:01.686Z,22.35
2019-03-25T02:25:01.673Z,22.30
2019-03-25T02:26:02.434Z,22.35
2019-03-25T02:27:01.675Z,22.35
2019-03-25T02:28:01.642Z,22.35
2019-03-25T02:29:01.631Z,22.36
2019-03-25T02:30:02.435Z,22.37
2019-03-25T02:31:01.610Z,22.33
2019-03-25T02:32:01.624Z,22.39
2019-03-25T02:33:02.437Z,22.30
2019-03-25T02:34:01.584Z,22.30
2019-03-25T02:35:01.578Z,22.30
2019-03-25T02:36:02.434Z,22.30
2019-03-25T02:37:01.562Z,22.28
2019-03-25T02:38:01.532Z,22.28
2019-03-25T02:39:01.523Z,22.24
2019-03-25T02:40:01.541Z,22.33
2019-03-25T02:41:01.504Z,22.30
2019-03-25T02:42:01.520Z,22.28
2019-03-25T02:43:01.481Z,22.27
2019-03-25T02:44:01.485Z,22.27
2019-03-25T02:45:02.441Z,22.25
2019-03-25T02:46:02.433Z,22.30
2019-03-25T02:47:01.956Z,22.27
2019-03-25T02:48:01.430Z,22.30
2019-03-25T02:49:01.433Z,22.22
2019-03-25T02:50:01.431Z,22.25
2019-03-25T02:51:01.398Z,22.20
2019-03-25T02:52:01.448Z,22.24
2019-03-25T02:53:01.375Z,22.22
2019-03-25T02:54:01.362Z,22.24
2019-03-25T02:55:01.366Z,22.24
2019-03-25T02:56:01.349Z,22.31
2019-03-25T02:57:01.935Z,22.24
2019-03-25T02:58:01.329Z,22.24
2019-03-25T02:59:01.307Z,22.22
2019-03-25T03:00:01.308Z,22.18
2019-03-25T03:01:01.938Z,22.21
2019-03-25T03:02:01.274Z,22.20
2019-03-25T03:03:01.457Z,22.20
2019-03-25T03:04:01.253Z,22.20
2019-03-25T03:05:01.250Z,22.21
2019-03-25T03:06:01.235Z,22.22
2019-03-25T03:07:01.935Z,22.27
2019-03-25T03:08:01.458Z,22.24
2019-03-25T03:09:01.941Z,22.21
2019-03-25T03:10:01.197Z,22.20
2019-03-25T03:11:01.177Z,22.21
2019-03-25T03:12:01.982Z,22.27
2019-03-25T03:13:01.174Z,22.27
2019-03-25T03:14:01.938Z,22.18
2019-03-25T03:15:01.198Z,22.21
2019-03-25T03:16:01.121Z,22.24
2019-03-25T03:17:01.108Z,22.24
2019-03-25T03:18:01.449Z,22.22
2019-03-25T03:19:01.091Z,22.24
2019-03-25T03:20:01.090Z,22.24
2019-03-25T03:21:01.073Z,22.27
2019-03-25T03:22:01.103Z,22.20
2019-03-25T03:23:01.064Z,22.20
2019-03-25T03:24:01.032Z,22.15
2019-03-25T03:25:01.086Z,22.18
2019-03-25T03:26:01.015Z,22.18
2019-03-25T03:27:01.002Z,22.20
2019-03-25T03:28:01.020Z,22.25
2019-03-25T03:29:01.938Z,22.24
2019-03-25T03:30:01.090Z,22.20
2019-03-25T03:31:01.028Z,22.27
2019-03-25T03:32:01.952Z,22.21
2019-03-25T03:33:00.953Z,22.27
2019-03-25T03:34:00.926Z,22.27
2019-03-25T03:35:01.141Z,22.27
2019-03-25T03:36:00.921Z,22.20
2019-03-25T03:37:01.455Z,22.24
2019-03-25T03:38:00.955Z,22.21
2019-03-25T03:39:01.447Z,22.30
2019-03-25T03:40:00.858Z,22.21
2019-03-25T03:41:00.854Z,22.24
2019-03-25T03:42:01.459Z,22.30
2019-03-25T03:43:00.848Z,22.27
2019-03-25T03:44:01.009Z,22.21
2019-03-25T03:45:01.446Z,22.25
2019-03-25T03:46:01.456Z,22.24
2019-03-25T03:47:01.439Z,22.25
2019-03-25T03:48:00.951Z,22.25
2019-03-25T03:49:00.766Z,22.27
2019-03-25T03:50:01.447Z,22.27
2019-03-25T03:51:00.753Z,22.22
2019-03-25T03:52:00.736Z,22.21
2019-03-25T03:53:00.757Z,22.17
2019-03-25T03:54:00.717Z,22.21
2019-03-25T03:55:00.707Z,22.24
2019-03-25T03:56:12.762Z,22.24
2019-03-25T03:57:00.673Z,22.21
2019-03-25T03:58:00.680Z,22.18
2019-03-25T03:59:00.657Z,22.17
2019-03-25T04:00:01.463Z,22.27
2019-03-25T04:01:00.643Z,22.14
2019-03-25T04:02:00.619Z,22.22
2019-03-25T04:03:00.627Z,22.27
2019-03-25T04:04:00.644Z,22.24
2019-03-25T04:05:00.640Z,22.24
2019-03-25T04:06:00.583Z,22.20
2019-03-25T04:07:00.564Z,22.24
2019-03-25T04:08:00.583Z,22.20
2019-03-25T04:09:00.543Z,22.21
2019-03-25T04:10:01.464Z,22.24
2019-03-25T04:11:00.522Z,22.22
2019-03-25T04:12:01.453Z,22.25
2019-03-25T04:13:00.526Z,22.24
2019-03-25T04:14:00.489Z,22.24
2019-03-25T04:15:01.439Z,22.21
2019-03-25T04:16:01.645Z,22.22
2019-03-25T04:17:00.453Z,22.21
2019-03-25T04:18:00.463Z,22.20
2019-03-25T04:19:00.438Z,22.24
2019-03-25T04:20:00.532Z,22.22
2019-03-25T04:21:00.431Z,22.21
2019-03-25T04:22:00.947Z,22.27
2019-03-25T04:23:00.417Z,22.24
2019-03-25T04:24:00.389Z,22.28
2019-03-25T04:25:00.653Z,22.25
2019-03-25T04:26:00.386Z,22.21
2019-03-25T04:27:00.358Z,22.20
2019-03-25T04:28:00.465Z,22.20
2019-03-25T04:29:00.341Z,22.27
2019-03-25T04:30:00.338Z,22.24
2019-03-25T04:31:00.313Z,22.25
2019-03-25T04:32:00.949Z,22.24
2019-03-25T04:33:00.469Z,22.22
2019-03-25T04:34:00.946Z,22.22
2019-03-25T04:35:00.336Z,22.20
2019-03-25T04:36:00.257Z,22.24
2019-03-25T04:37:00.234Z,22.24
2019-03-25T04:38:00.457Z,22.21
2019-03-25T04:39:00.943Z,22.20
2019-03-25T04:40:00.403Z,22.21
2019-03-25T04:41:00.201Z,22.21
2019-03-25T04:42:00.180Z,22.24
2019-03-25T04:43:00.269Z,22.15
2019-03-25T04:44:00.161Z,22.17
2019-03-25T04:45:00.950Z,22.22
2019-03-25T04:46:00.148Z,22.21
2019-03-25T04:47:00.130Z,22.24
2019-03-25T04:48:00.132Z,22.18
2019-03-25T04:49:00.108Z,22.17
2019-03-25T04:50:00.100Z,22.27
2019-03-25T04:51:00.092Z,22.28
2019-03-25T04:52:00.074Z,22.21
2019-03-25T04:53:00.083Z,22.21
2019-03-25T04:54:00.052Z,22.25
2019-03-25T04:55:00.042Z,22.18
2019-03-25T04:56:00.032Z,22.21
2019-03-25T04:57:00.018Z,22.14
2019-03-25T04:58:00.035Z,22.21
2019-03-25T04:58:59.999Z,22.25
2019-03-25T05:00:00.947Z,22.21
2019-03-25T05:01:00.941Z,22.15
2019-03-25T05:01:59.969Z,22.20
2019-03-25T05:02:59.955Z,22.20
2019-03-25T05:03:59.967Z,22.21
2019-03-25T05:04:59.935Z,22.22
2019-03-25T05:05:59.933Z,22.20
2019-03-25T05:06:59.912Z,22.24
2019-03-25T05:07:59.900Z,22.21
2019-03-25T05:08:59.906Z,22.21
2019-03-25T05:09:59.883Z,22.18
2019-03-25T05:11:00.457Z,22.17
2019-03-25T05:11:59.857Z,22.17
2019-03-25T05:12:59.846Z,22.17
2019-03-25T05:13:59.856Z,22.21
2019-03-25T05:14:59.826Z,22.20
2019-03-25T05:15:59.815Z,22.18
2019-03-25T05:17:00.448Z,22.22
2019-03-25T05:17:59.799Z,22.21
2019-03-25T05:18:59.796Z,22.14
2019-03-25T05:19:59.773Z,22.17
2019-03-25T05:20:59.759Z,22.15
2019-03-25T05:22:00.454Z,22.21
2019-03-25T05:22:59.735Z,22.27
2019-03-25T05:23:59.753Z,22.15
2019-03-25T05:25:00.516Z,22.20
2019-03-25T05:26:00.441Z,22.22
2019-03-25T05:27:00.443Z,22.15
2019-03-25T05:27:59.689Z,22.15
2019-03-25T05:28:59.688Z,22.12
2019-03-25T05:29:59.663Z,22.14
2019-03-25T05:30:59.649Z,22.17
2019-03-25T05:31:59.641Z,22.12
2019-03-25T05:32:59.634Z,22.17
2019-03-25T05:33:59.634Z,22.15
2019-03-25T05:35:00.521Z,22.18
2019-03-25T05:36:00.450Z,22.20
2019-03-25T05:36:59.583Z,22.17
2019-03-25T05:37:59.574Z,22.14
2019-03-25T05:38:59.582Z,22.18
2019-03-25T05:39:59.552Z,22.17
2019-03-25T05:41:00.447Z,22.25
2019-03-25T05:41:59.535Z,22.17
2019-03-25T05:43:00.444Z,22.20
2019-03-25T05:43:59.973Z,22.12
2019-03-25T05:44:59.505Z,22.18
2019-03-25T05:45:59.500Z,22.17
2019-03-25T05:46:59.486Z,22.14
2019-03-25T05:47:59.469Z,22.10
2019-03-25T05:48:59.961Z,22.17
2019-03-25T05:49:59.446Z,22.12
2019-03-25T05:50:59.456Z,22.17
2019-03-25T05:51:59.951Z,22.14
2019-03-25T05:52:59.411Z,22.15
2019-03-25T05:53:59.419Z,22.15
2019-03-25T05:54:59.391Z,22.12
2019-03-25T05:55:59.385Z,22.17
2019-03-25T05:57:02.789Z,22.10
2019-03-25T05:57:59.363Z,22.15
2019-03-25T05:58:59.483Z,22.12
2019-03-25T05:59:59.333Z,22.09
2019-03-25T06:00:59.338Z,22.17
2019-03-25T06:01:59.313Z,22.17
2019-03-25T06:02:59.314Z,22.15
2019-03-25T06:03:59.311Z,22.15
2019-03-25T06:04:59.948Z,22.12
2019-03-25T06:05:59.286Z,22.15
2019-03-25T06:06:59.260Z,22.14
2019-03-25T06:07:59.269Z,22.18
2019-03-25T06:08:59.458Z,22.12
2019-03-25T06:09:59.945Z,22.12
2019-03-25T06:10:59.225Z,22.17
2019-03-25T06:11:59.948Z,22.14
2019-03-25T06:12:59.196Z,22.12
2019-03-25T06:13:59.202Z,22.10
2019-03-25T06:14:59.961Z,22.17
2019-03-25T06:15:59.185Z,22.12
2019-03-25T06:16:59.154Z,22.12
2019-03-25T06:17:59.951Z,22.12
2019-03-25T06:18:59.485Z,22.17
2019-03-25T06:19:59.118Z,22.10
2019-03-25T06:20:59.110Z,22.06
2019-03-25T06:21:59.100Z,22.18
2019-03-25T06:22:59.957Z,22.12
2019-03-25T06:23:59.095Z,22.17
2019-03-25T06:24:59.064Z,22.10
2019-03-25T06:25:59.053Z,22.12
2019-03-25T06:26:59.043Z,22.15
2019-03-25T06:27:59.031Z,22.12
2019-03-25T06:28:59.033Z,22.14
2019-03-25T06:29:59.950Z,22.14
2019-03-25T06:30:59.950Z,22.12
2019-03-25T06:31:59.951Z,22.12
2019-03-25T06:32:58.979Z,22.14
2019-03-25T06:33:59.464Z,22.14
2019-03-25T06:34:59.952Z,22.14
2019-03-25T06:35:59.456Z,22.14
2019-03-25T06:36:58.932Z,22.15
2019-03-25T06:37:58.940Z,22.12
2019-03-25T06:38:58.925Z,22.17
2019-03-25T06:39:59.448Z,22.12
2019-03-25T06:40:58.889Z,22.17
2019-03-25T06:41:58.875Z,22.14
2019-03-25T06:42:59.452Z,22.10
2019-03-25T06:43:58.874Z,22.18
2019-03-25T06:44:58.846Z,22.22
2019-03-25T06:45:58.833Z,22.20
2019-03-25T06:46:58.824Z,22.12
2019-03-25T06:47:58.835Z,22.17
2019-03-25T06:48:58.967Z,22.15
2019-03-25T06:49:58.791Z,22.17
2019-03-25T06:50:58.778Z,22.22
2019-03-25T06:51:58.774Z,22.10
2019-03-25T06:52:59.478Z,22.10
2019-03-25T06:53:58.762Z,22.17
2019-03-25T06:54:58.745Z,22.24
2019-03-25T06:55:58.721Z,22.10
2019-03-25T06:56:58.714Z,22.14
2019-03-25T06:57:58.704Z,22.18
2019-03-25T06:58:58.710Z,22.20
2019-03-25T06:59:58.679Z,22.27
2019-03-25T07:00:58.669Z,22.24
2019-03-25T07:01:58.660Z,22.24
2019-03-25T07:02:58.646Z,22.24
2019-03-25T07:03:58.655Z,22.24
2019-03-25T07:04:59.455Z,22.25
2019-03-25T07:05:58.631Z,22.35
2019-03-25T07:06:58.603Z,22.33
2019-03-25T07:07:58.591Z,22.36
2019-03-25T07:08:58.592Z,22.42
2019-03-25T07:09:58.585Z,22.45
2019-03-25T07:10:58.561Z,22.45
2019-03-25T07:11:58.551Z,22.51
2019-03-25T07:12:58.538Z,22.52
2019-03-25T07:13:58.530Z,22.43
2019-03-25T07:14:58.537Z,22.51
2019-03-25T07:15:58.505Z,22.57
2019-03-25T07:16:58.507Z,22.61
2019-03-25T07:17:59.454Z,22.51
2019-03-25T07:18:58.475Z,22.62
2019-03-25T07:19:58.474Z,22.62
2019-03-25T07:20:58.450Z,22.64
2019-03-25T07:21:58.436Z,22.62
2019-03-25T07:22:58.955Z,22.61
2019-03-25T07:23:58.421Z,22.62
2019-03-25T07:24:58.419Z,22.67
2019-03-25T07:25:58.395Z,22.75
2019-03-25T07:26:58.383Z,22.70
2019-03-25T07:27:58.374Z,22.75
2019-03-25T07:28:58.363Z,22.75
2019-03-25T07:29:58.363Z,22.75
2019-03-25T07:30:58.339Z,22.79
2019-03-25T07:31:58.328Z,22.79
2019-03-25T07:32:58.317Z,22.79
2019-03-25T07:33:58.311Z,22.82
2019-03-25T07:34:58.312Z,22.83
2019-03-25T07:35:58.956Z,22.83
2019-03-25T07:36:58.274Z,22.86
2019-03-25T07:37:58.263Z,22.77
2019-03-25T07:39:00.204Z,22.82
2019-03-25T07:39:58.272Z,22.82
2019-03-25T07:40:58.238Z,22.85
2019-03-25T07:41:58.226Z,22.90
2019-03-25T07:42:58.211Z,22.82
2019-03-25T07:43:58.959Z,22.90
2019-03-25T07:44:58.201Z,22.86
2019-03-25T07:45:58.957Z,22.82
2019-03-25T07:46:58.174Z,22.90
2019-03-25T07:47:58.954Z,22.91
2019-03-25T07:48:58.147Z,22.95
2019-03-25T07:49:58.152Z,22.95
2019-03-25T07:50:58.123Z,22.95
2019-03-25T07:51:58.131Z,22.90
2019-03-25T07:52:58.120Z,22.92
2019-03-25T07:53:58.099Z,22.97
2019-03-25T07:54:58.137Z,22.91
2019-03-25T07:55:59.009Z,22.91
2019-03-25T07:56:58.068Z,23.02
2019-03-25T07:57:58.079Z,23.02
2019-03-25T07:58:58.036Z,23.05
2019-03-25T07:59:58.468Z,22.94
2019-03-25T08:00:58.979Z,23.10
2019-03-25T08:01:57.998Z,23.09
2019-03-25T08:02:57.998Z,23.10
2019-03-25T08:03:57.980Z,23.04
2019-03-25T08:04:57.998Z,23.10
2019-03-25T08:05:57.957Z,23.02
2019-03-25T08:06:57.948Z,23.12
2019-03-25T08:07:57.967Z,23.07
2019-03-25T08:09:03.731Z,23.17
2019-03-25T08:09:57.953Z,23.10
2019-03-25T08:10:58.461Z,23.13
2019-03-25T08:11:57.918Z,23.07
2019-03-25T08:12:58.532Z,23.10
2019-03-25T08:13:57.880Z,23.10
2019-03-25T08:14:57.995Z,23.15
2019-03-25T08:15:57.875Z,23.12
2019-03-25T08:16:57.846Z,23.16
2019-03-25T08:17:57.853Z,23.19
2019-03-25T08:18:58.467Z,23.13
2019-03-25T08:19:57.815Z,23.16
2019-03-25T08:20:57.789Z,23.15
2019-03-25T08:21:58.469Z,23.15
2019-03-25T08:22:57.785Z,23.19
2019-03-25T08:23:57.758Z,23.15
2019-03-25T08:24:57.766Z,23.20
2019-03-25T08:25:57.744Z,23.25
2019-03-25T08:26:58.469Z,23.19
2019-03-25T08:28:00.277Z,23.27
2019-03-25T08:28:57.717Z,23.19
2019-03-25T08:29:57.721Z,23.23
2019-03-25T08:30:57.711Z,23.20
2019-03-25T08:31:58.967Z,23.27
2019-03-25T08:32:57.663Z,23.27
2019-03-25T08:33:57.647Z,23.27
2019-03-25T08:34:57.657Z,23.19
2019-03-25T08:35:57.630Z,23.16
2019-03-25T08:36:57.636Z,23.22
2019-03-25T08:37:57.603Z,23.16
2019-03-25T08:38:57.593Z,23.10
2019-03-25T08:39:57.599Z,23.22
2019-03-25T08:40:57.576Z,23.16
2019-03-25T08:41:57.568Z,23.22
2019-03-25T08:42:58.472Z,23.20
2019-03-25T08:43:57.552Z,23.19
2019-03-25T08:44:57.545Z,23.22
2019-03-25T08:45:57.517Z,23.17
2019-03-25T08:46:57.518Z,23.17
2019-03-25T08:47:57.506Z,23.15
2019-03-25T08:48:58.459Z,23.13
2019-03-25T08:49:57.483Z,23.17
2019-03-25T08:50:57.462Z,23.15
2019-03-25T08:51:57.452Z,23.13
2019-03-25T08:52:57.997Z,23.19
2019-03-25T08:53:57.454Z,23.16
2019-03-25T08:54:57.442Z,23.19
2019-03-25T08:55:57.432Z,23.16
2019-03-25T08:56:57.400Z,23.17
2019-03-25T08:57:57.388Z,23.27
2019-03-25T08:58:57.396Z,23.22
2019-03-25T08:59:57.766Z,23.22
2019-03-25T09:00:57.377Z,23.25
2019-03-25T09:01:57.990Z,23.23
2019-03-25T09:02:57.332Z,23.22
2019-03-25T09:03:57.327Z,23.17
2019-03-25T09:04:57.470Z,23.20
2019-03-25T09:05:59.526Z,23.27
2019-03-25T09:06:57.977Z,23.25
2019-03-25T09:07:57.971Z,23.23
2019-03-25T09:08:57.267Z,23.17
2019-03-25T09:09:57.286Z,23.16
2019-03-25T09:10:57.262Z,23.15
2019-03-25T09:11:57.961Z,23.23
2019-03-25T09:12:57.224Z,23.32
2019-03-25T09:13:57.219Z,23.22
2019-03-25T09:14:57.208Z,23.19
2019-03-25T09:15:57.210Z,23.17
2019-03-25T09:16:59.850Z,23.20
2019-03-25T09:17:57.180Z,23.17
2019-03-25T09:18:57.159Z,23.23
2019-03-25T09:19:57.155Z,23.16
2019-03-25T09:20:57.507Z,23.17
2019-03-25T09:21:57.135Z,23.20
2019-03-25T09:22:57.127Z,23.17
2019-03-25T09:23:57.970Z,23.17
2019-03-25T09:24:57.097Z,23.19
2019-03-25T09:25:57.473Z,23.17
2019-03-25T09:26:57.971Z,23.17
2019-03-25T09:27:57.061Z,23.16
2019-03-25T09:28:57.053Z,23.17
2019-03-25T09:29:57.044Z,23.13
2019-03-25T09:30:57.071Z,23.22
2019-03-25T09:31:57.028Z,23.19
2019-03-25T09:32:57.962Z,23.17
2019-03-25T09:33:57.004Z,23.13
2019-03-25T09:34:57.963Z,23.16
2019-03-25T09:35:57.018Z,23.16
2019-03-25T09:36:57.462Z,23.13
2019-03-25T09:37:57.473Z,23.16
2019-03-25T09:38:57.465Z,23.15
2019-03-25T09:39:56.928Z,23.20
2019-03-25T09:40:57.044Z,23.13
2019-03-25T09:41:56.922Z,23.15
2019-03-25T09:42:56.912Z,23.23
2019-03-25T09:43:56.901Z,23.17
2019-03-25T09:44:56.892Z,23.13
2019-03-25T09:45:56.893Z,23.15
2019-03-25T09:46:56.857Z,23.20
2019-03-25T09:47:56.844Z,23.16
2019-03-25T09:48:56.841Z,23.15
2019-03-25T09:49:56.835Z,23.17
2019-03-25T09:50:56.828Z,23.13
2019-03-25T09:51:57.468Z,23.16
2019-03-25T09:52:56.792Z,23.10
2019-03-25T09:53:56.779Z,23.17
2019-03-25T09:54:56.765Z,23.13
2019-03-25T09:55:56.787Z,23.16
2019-03-25T09:56:57.487Z,23.10
2019-03-25T09:57:56.737Z,23.15
2019-03-25T09:58:56.722Z,23.13
2019-03-25T09:59:56.712Z,23.16
2019-03-25T10:00:56.977Z,23.20
2019-03-25T10:01:56.693Z,23.17
2019-03-25T10:02:56.682Z,23.19
2019-03-25T10:03:56.668Z,23.15
2019-03-25T10:04:56.657Z,23.15
2019-03-25T10:05:56.659Z,23.19
2019-03-25T10:06:57.463Z,23.15
2019-03-25T10:07:57.465Z,23.20
2019-03-25T10:08:56.655Z,23.15
2019-03-25T10:09:56.611Z,23.13
2019-03-25T10:10:56.978Z,23.13
2019-03-25T10:11:56.581Z,23.12
2019-03-25T10:12:56.874Z,23.19
2019-03-25T10:13:57.464Z,23.16
2019-03-25T10:14:57.469Z,23.16
2019-03-25T10:15:56.572Z,23.13
2019-03-25T10:16:56.528Z,23.12
2019-03-25T10:17:56.518Z,23.12
2019-03-25T10:18:56.505Z,23.12
2019-03-25T10:19:57.470Z,23.05
2019-03-25T10:20:56.509Z,23.02
2019-03-25T10:21:56.475Z,22.90
2019-03-25T10:22:56.471Z,22.86
2019-03-25T10:23:56.487Z,22.83
2019-03-25T10:24:56.443Z,22.73
2019-03-25T10:25:56.451Z,22.70
2019-03-25T10:26:56.425Z,22.64
2019-03-25T10:27:56.414Z,22.60
2019-03-25T10:28:56.402Z,22.51
2019-03-25T10:29:56.391Z,22.52
2019-03-25T10:30:56.416Z,22.47
2019-03-25T10:31:56.369Z,22.51
2019-03-25T10:32:56.361Z,22.49
2019-03-25T10:33:56.347Z,22.49
2019-03-25T10:34:56.966Z,22.43
2019-03-25T10:35:56.480Z,22.46
2019-03-25T10:36:56.316Z,22.42
2019-03-25T10:37:56.311Z,22.43
2019-03-25T10:38:56.295Z,22.46
2019-03-25T10:39:56.968Z,22.54
2019-03-25T10:40:56.278Z,22.54
2019-03-25T10:41:56.256Z,22.54
2019-03-25T10:42:56.989Z,22.61
2019-03-25T10:43:56.239Z,22.62
2019-03-25T10:44:56.983Z,22.64
2019-03-25T10:45:56.223Z,22.72
2019-03-25T10:46:56.965Z,22.67
2019-03-25T10:47:56.982Z,22.70
2019-03-25T10:48:56.969Z,22.80
2019-03-25T10:49:56.165Z,22.79
2019-03-25T10:50:56.170Z,22.79
2019-03-25T10:51:56.145Z,22.77
2019-03-25T10:52:56.138Z,22.79
2019-03-25T10:53:56.136Z,22.82
2019-03-25T10:55:56.114Z,22.80
2019-03-25T10:56:56.091Z,22.85
2019-03-25T10:57:56.084Z,22.83
2019-03-25T10:58:58.304Z,22.88
2019-03-25T10:59:56.969Z,22.88
2019-03-25T11:00:56.072Z,22.90
2019-03-25T11:01:56.035Z,22.88
2019-03-25T11:02:56.035Z,22.86
2019-03-25T11:03:56.018Z,22.95
2019-03-25T11:04:56.973Z,23.00
2019-03-25T11:05:56.003Z,22.97
2019-03-25T11:06:55.975Z,23.04
2019-03-25T11:07:55.973Z,23.01
2019-03-25T11:08:55.985Z,23.04
2019-03-25T11:09:55.946Z,23.13
2019-03-25T11:10:55.948Z,23.12
2019-03-25T11:11:56.468Z,23.10
2019-03-25T11:12:55.919Z,23.12
2019-03-25T11:13:56.470Z,23.19
2019-03-25T11:14:55.891Z,23.19
2019-03-25T11:15:55.879Z,23.19
2019-03-25T11:16:55.885Z,23.22
2019-03-25T11:17:56.501Z,23.22
2019-03-25T11:18:55.845Z,23.35
2019-03-25T11:19:55.836Z,23.31
2019-03-25T11:20:56.468Z,23.43
2019-03-25T11:21:55.833Z,23.38
2019-03-25T11:22:56.476Z,23.40
2019-03-25T11:23:55.800Z,23.43
2019-03-25T11:24:55.781Z,23.38
2019-03-25T11:25:56.523Z,23.47
2019-03-25T11:26:55.774Z,23.48
2019-03-25T11:27:55.756Z,23.55
2019-03-25T11:28:56.473Z,23.51
2019-03-25T11:29:56.473Z,23.55
2019-03-25T11:30:55.727Z,23.61
2019-03-25T11:31:56.018Z,23.60
2019-03-25T11:32:55.710Z,23.58
2019-03-25T11:33:55.686Z,23.68
2019-03-25T11:34:56.471Z,23.68
2019-03-25T11:35:55.662Z,23.75
2019-03-25T11:36:55.668Z,23.75
2019-03-25T11:37:55.647Z,23.76
2019-03-25T11:38:56.470Z,23.78
2019-03-25T11:39:55.619Z,23.84
2019-03-25T11:40:56.476Z,23.78
2019-03-25T11:41:55.982Z,23.85
2019-03-25T11:42:55.588Z,23.93
2019-03-25T11:43:56.471Z,23.85
2019-03-25T11:44:55.566Z,23.88
2019-03-25T11:45:56.481Z,23.94
2019-03-25T11:46:56.011Z,23.88
2019-03-25T11:47:56.469Z,23.98
2019-03-25T11:48:56.472Z,23.91
2019-03-25T11:49:55.512Z,23.95
2019-03-25T11:50:55.502Z,24.05
2019-03-25T11:51:55.990Z,24.03
2019-03-25T11:52:55.483Z,24.02
2019-03-25T11:53:55.470Z,24.05
2019-03-25T11:54:55.459Z,24.06
2019-03-25T11:55:55.449Z,24.05
2019-03-25T11:56:55.451Z,24.05
2019-03-25T11:57:55.432Z,24.03
2019-03-25T11:58:55.411Z,24.05
2019-03-25T11:59:55.403Z,24.08
2019-03-25T12:00:55.397Z,24.08
2019-03-25T12:01:55.487Z,23.98
2019-03-25T12:02:55.373Z,24.08
2019-03-25T12:03:55.359Z,24.10
2019-03-25T12:04:55.348Z,24.06
2019-03-25T12:05:55.340Z,24.08
2019-03-25T12:06:55.346Z,24.08
2019-03-25T12:07:55.321Z,24.03
2019-03-25T12:08:55.308Z,24.09
2019-03-25T12:09:55.294Z,24.10
2019-03-25T12:10:55.284Z,24.10
2019-03-25T12:11:55.500Z,24.02
2019-03-25T12:12:55.260Z,24.13
2019-03-25T12:13:55.255Z,23.97
2019-03-25T12:14:55.237Z,24.02
2019-03-25T12:15:55.226Z,24.10
2019-03-25T12:16:55.228Z,24.13
2019-03-25T12:17:55.206Z,23.97
2019-03-25T12:18:55.974Z,24.06
2019-03-25T12:19:55.185Z,24.13
2019-03-25T12:20:55.196Z,24.09
2019-03-25T12:21:55.190Z,24.10
2019-03-25T12:22:55.152Z,24.13
2019-03-25T12:23:55.141Z,24.08
2019-03-25T12:24:55.131Z,24.13
2019-03-25T12:25:55.120Z,24.09
2019-03-25T12:26:55.131Z,24.15
2019-03-25T12:27:55.100Z,24.12
2019-03-25T12:28:55.085Z,24.00
2019-03-25T12:29:55.078Z,24.10
2019-03-25T12:30:55.064Z,24.08
2019-03-25T12:31:55.071Z,24.12
2019-03-25T12:33:03.988Z,24.18
2019-03-25T12:33:55.032Z,24.16
2019-03-25T12:34:55.979Z,24.20
2019-03-25T12:35:55.972Z,24.25
2019-03-25T12:36:55.490Z,24.15
2019-03-25T12:37:55.975Z,24.10
2019-03-25T12:38:54.987Z,24.06
2019-03-25T12:39:54.968Z,24.03
2019-03-25T12:40:54.957Z,23.94
2019-03-25T12:41:54.989Z,23.91
2019-03-25T12:42:55.478Z,23.87
2019-03-25T12:43:54.931Z,23.73
2019-03-25T12:44:54.914Z,23.63
2019-03-25T12:45:54.901Z,23.65
2019-03-25T12:46:54.907Z,23.54
2019-03-25T12:47:54.881Z,23.50
2019-03-25T12:48:55.474Z,23.43
2019-03-25T12:49:54.861Z,23.38
2019-03-25T12:50:54.847Z,23.31
2019-03-25T12:51:54.870Z,23.28
2019-03-25T12:52:55.477Z,23.27